createdAt,value
2023-06-12T00:08:24.409Z,39.39
2023-06-12T00:18:28.223Z,39.63
2023-06-12T00:28:32.913Z,40.07
2023-06-12T00:38:37.889Z,40.30
2023-06-12T00:48:44.006Z,40.26
2023-06-12T00:58:50.338Z,40.37
2023-06-12T01:09:17.022Z,40.65
2023-06-12T01:19:21.580Z,40.97
2023-06-12T01:29:55.671Z,41.25
2023-06-12T01:40:01.921Z,41.35
2023-06-12T01:50:10.388Z,41.84
2023-06-12T02:00:15.426Z,42.49
2023-06-12T02:10:24.073Z,42.89
2023-06-12T02:20:27.835Z,42.97
2023-06-12T02:30:31.629Z,43.36
2023-06-12T02:40:37.871Z,43.16
2023-06-12T02:50:42.350Z,43.32
2023-06-12T03:00:47.649Z,43.44
2023-06-12T03:10:55.419Z,42.91
2023-06-12T03:20:59.581Z,42.26
2023-06-12T03:31:05.642Z,41.85
2023-06-12T03:41:13.405Z,41.28
2023-06-12T03:51:17.719Z,33.26
2023-06-12T04:01:21.840Z,23.04
2023-06-12T04:11:26.243Z,19.51
2023-06-12T04:21:30.551Z,14.81
2023-06-12T04:31:34.368Z,12.00
2023-06-12T04:41:39.147Z,10.61
2023-06-12T04:51:43.830Z,9.56
2023-06-12T05:01:49.175Z,9.33
2023-06-12T05:11:54.080Z,8.41
2023-06-12T05:21:59.856Z,7.96
2023-06-12T05:32:06.562Z,7.69
2023-06-12T05:42:13.985Z,8.43
2023-06-12T05:52:18.447Z,11.96
2023-06-12T06:02:22.669Z,15.53
2023-06-12T06:12:28.395Z,18.90
2023-06-12T06:22:33.438Z,21.98
2023-06-12T06:32:37.802Z,24.32
2023-06-12T06:42:45.811Z,25.33
2023-06-12T06:52:49.775Z,25.60
2023-06-12T07:02:56.426Z,25.22
2023-06-12T07:13:04.538Z,25.07
2023-06-12T07:23:15.436Z,24.88
2023-06-12T07:33:19.842Z,24.47
2023-06-12T07:43:23.798Z,24.15
2023-06-12T07:53:37.824Z,23.97
2023-06-12T08:03:46.714Z,22.95
2023-06-12T08:13:55.830Z,22.57
2023-06-12T08:24:01.873Z,23.08
2023-06-12T08:34:10.158Z,23.34
2023-06-12T08:44:16.718Z,23.68
2023-06-12T08:54:24.019Z,23.38
2023-06-12T09:04:56.316Z,23.49
2023-06-12T09:15:05.170Z,23.64
2023-06-12T09:25:11.065Z,23.44
2023-06-12T09:35:15.170Z,22.41
2023-06-12T09:45:24.863Z,22.75
2023-06-12T09:55:30.196Z,22.32
2023-06-12T10:05:42.450Z,22.34
2023-06-12T10:15:48.801Z,22.24
2023-06-12T10:25:53.715Z,22.24
2023-06-12T10:35:58.637Z,22.49
2023-06-12T10:46:02.467Z,22.52
2023-06-12T10:56:09.127Z,21.84
2023-06-12T11:06:18.019Z,22.04
2023-06-12T11:16:24.346Z,22.10
2023-06-12T11:26:28.578Z,21.94
2023-06-12T11:36:40.077Z,21.19
2023-06-12T11:46:46.117Z,21.09
2023-06-12T11:56:56.635Z,21.34
2023-06-12T12:07:02.404Z,20.65
2023-06-12T12:17:09.868Z,20.70
2023-06-12T12:27:14.977Z,20.66
2023-06-12T12:37:18.638Z,19.37
2023-06-12T12:47:22.597Z,19.77
2023-06-12T12:57:33.653Z,19.29
2023-06-12T13:07:38.909Z,19.70
2023-06-12T13:17:42.548Z,19.45
2023-06-12T13:27:46.254Z,19.70
2023-06-12T13:37:50.086Z,19.89
2023-06-12T13:47:53.765Z,19.82
2023-06-12T13:57:57.845Z,19.32
2023-06-12T14:08:03.901Z,19.69
2023-06-12T14:18:08.844Z,19.91
2023-06-12T14:28:12.455Z,19.69
2023-06-12T14:38:16.219Z,19.84
2023-06-12T14:48:19.991Z,20.00
2023-06-12T14:58:23.729Z,20.14
2023-06-12T15:08:27.577Z,19.82
2023-06-12T15:18:42.139Z,19.48
2023-06-12T15:28:46.849Z,18.84
2023-06-12T15:38:52.708Z,19.66
2023-06-12T15:48:56.530Z,20.25
2023-06-12T15:59:00.253Z,20.48
2023-06-12T16:09:07.055Z,19.58
2023-06-12T16:19:13.664Z,19.46
2023-06-12T16:29:17.944Z,19.62
2023-06-12T16:39:21.623Z,19.77
2023-06-12T16:49:25.349Z,20.89
2023-06-12T16:59:29.032Z,21.95
2023-06-12T17:09:32.690Z,23.17
2023-06-12T17:19:36.896Z,23.36
2023-06-12T17:29:41.514Z,23.36
2023-06-12T17:39:45.369Z,23.83
2023-06-12T17:49:49.117Z,24.23
2023-06-12T17:59:52.899Z,24.95
2023-06-12T18:09:56.781Z,25.81
2023-06-12T18:20:01.117Z,26.28
2023-06-12T18:30:05.230Z,26.55
2023-06-12T18:40:10.333Z,28.87
2023-06-12T18:50:14.116Z,31.58
2023-06-12T19:00:18.511Z,32.39
2023-06-12T19:10:24.471Z,33.02
2023-06-12T19:20:30.041Z,33.52
2023-06-12T19:30:34.964Z,34.10
2023-06-12T19:40:38.643Z,34.30
2023-06-12T19:50:43.007Z,34.90
2023-06-12T20:00:47.211Z,35.47
2023-06-12T20:10:50.937Z,35.70
2023-06-12T20:20:54.774Z,35.99
2023-06-12T20:30:58.698Z,36.34
2023-06-12T20:41:02.453Z,36.44
2023-06-12T20:51:08.641Z,36.28
2023-06-12T21:01:12.336Z,35.91
2023-06-12T21:11:35.084Z,35.89
2023-06-12T21:21:39.930Z,35.99
2023-06-12T21:31:43.684Z,36.39
2023-06-12T21:41:47.380Z,36.65
2023-06-12T21:51:52.808Z,36.74
2023-06-12T22:01:57.794Z,37.11
2023-06-12T22:12:04.714Z,37.40
2023-06-12T22:22:08.461Z,38.26
2023-06-12T22:32:12.264Z,38.83
2023-06-12T22:42:16.192Z,39.40
2023-06-12T22:52:22.044Z,40.25
2023-06-12T23:02:26.055Z,40.54
2023-06-12T23:12:29.833Z,40.83
2023-06-12T23:22:34.959Z,41.26
2023-06-12T23:32:41.884Z,41.52
2023-06-12T23:42:47.265Z,41.85
2023-06-12T23:52:51.032Z,42.08
